首页
METAR-TAF:

METAR-TAF

机场 :

巴黎-勒布尔热机场

巴黎, 法国

纬度: 48-58N, 经度: 002-27E, 海拔: 66米

当前天气观测

该预报发布于48分钟前的16:30 UTC
风速15节,风向西,在西南西转西北之间变化
温度 16°C
湿度 51%
气压 1000 hPa
能见度10公里或以上
1500米以下无云,无积雨云

METAR: LFPB 051630Z AUTO 26015KT 220V290 CAVOK 16/06 Q1000

时间: 19:18 (17:18 UTC)

预报

该预报发布于6小时和18分钟前的11:00 UTC
预报有效从05日的 12点(UTC)到 06日的 12点(UTC)
风速15节,风向西南,有时为25节阵风
能见度10公里或以上
多云层高于3000英尺
短暂存在
从 05日的 12点(UTC)到 05日的 15点(UTC)
散云层高于2500英尺, 塔状积云.
成为
从 05日的 18点(UTC)到 05日的 20点(UTC)
风速10节,风向西
短暂存在
从 06日的 10点(UTC)到 06日的 12点(UTC)
风速15节,风向西转西南,有时为25节阵风

TAF: LFPB 051100Z 0512/0612 22015G25KT 9999 BKN030 TEMPO 0512/0515 SCT025TCU BECMG 0518/0520 26010KT TEMPO 0610/0612 25015G25KT

超过4000个机场的气象观测和天气预报(METAR&TAF报告)。

可查询的气象台以黄色和红色小点在地图上表示。

将鼠标移到小点上方,可查看气象台名称。

然后点击查看天气观测和预报。

如需切换地图:点击带黑十字的绿色按钮放大地图;点击带横线的绿色按钮缩小地图;或者点击绿色箭头查看邻近地区的地图。


METAR-TAF: